Flight Track Log - Related Links

Times and Time Zones

All times are in EDT time to prevent confusion due to time zone crossing. See the N201LH flight status page for this flight to view local times or setup timezone preferences in your user account.

Time Position Orientation Groundspeed Altitude Reporting Facility
EDT Latitude Longitude Course Direction KTS MPH feet Rate Location/Type
Sat 07:15:56 PM 41.5211 -81.6786 343° North 75 86 1,000  Level Cleveland Center
Sat 07:16:50 PM 41.5419 -81.6872 343° North 103 119 1,700 835 Climbing Cleveland Center
Sat 07:17:51 PM 41.5708 -81.7044 336° Northwest 114 131 2,600 694 Climbing Cleveland Center
Sat 07:18:51 PM 41.5914 -81.7353 312° West 123 142 3,100 545 Climbing Cleveland Center
Sat 07:19:52 PM 41.6056 -81.7828 292° West 139 160 3,700 541 Climbing Cleveland Center
Sat 07:20:53 PM 41.6175 -81.8275 290° West 130 150 4,200 557 Climbing Cleveland Center
Sat 07:22:12 PM 41.6483 -81.8725 313° West 152 175 5,000 561 Climbing Cleveland Center
Sat 07:23:12 PM 41.6731 -81.9092 312° West 138 159 5,500 500 Climbing Cleveland Center
Sat 07:24:12 PM 41.6975 -81.9486 310° West 138 159 6,000 250 Climbing Cleveland Center
Sat 07:25:12 PM 41.7283 -81.9936 313° West 138 159 6,000  Level Cleveland Center
Sat 07:26:12 PM 41.7589 -82.0472 307° West 162 186 6,000  Level Cleveland Center
Sat 07:27:12 PM 41.7894 -82.0925 312° West 168 193 6,000  Level Cleveland Center
Sat 07:28:12 PM 41.8181 -82.1406 309° West 168 193 6,000  Level Cleveland Center
Sat 07:29:12 PM 41.8467 -82.1886 309° West 168 193 6,000  Level Cleveland Center
Sat 07:30:12 PM 41.8792 -82.2425 309° West 174 200 6,000  Level Cleveland Center
Sat 07:30:56 PM 41.9100 -82.2794 318° Northwest 174 200 6,000  Level Cleveland Center
Sat 07:31:12 PM 41.9119 -82.2881 287° West 174 200 6,000  Level Cleveland Center
Sat 07:31:50 PM 41.9364 -82.3278 310° West 174 200 6,000  Level Cleveland Center
Sat 07:32:12 PM 41.9444 -82.3419 307° West 174 200 6,000  Level Cleveland Center
Sat 07:32:57 PM 41.9708 -82.3789 314° West 173 199 6,000  Level Cleveland Center
Sat 07:33:12 PM 41.9728 -82.3875 287° West 179 206 6,000 -100 Level Cleveland Center
Sat 07:33:57 PM 42.0014 -82.4300 312° West 174 200 5,900 -100 Descending Cleveland Center
Sat 07:34:12 PM 42.0053 -82.4386 301° West 179 206 5,900 80 Level Cleveland Center
Sat 07:35:12 PM 42.0358 -82.4897 309° West 179 206 6,000 50 Climbing Cleveland Center
Sat 07:36:12 PM 42.0664 -82.5383 310° West 179 206 6,000  Level Cleveland Center
Sat 07:37:00 PM 42.0947 -82.5811 312° West 174 200 6,000  Level Cleveland Center
Sat 07:38:00 PM 42.1272 -82.6353 309° West 173 199 6,000  Level Cleveland Center
Sat 07:38:55 PM 42.1556 -82.6811 310° West 174 200 6,000  Level Cleveland Center
Sat 07:39:12 PM 42.1575 -82.6867 295° West 179 206 6,000  Level Cleveland Center
Sat 07:40:20 PM 42.1958 -82.7497 309° West 172 198 6,000  Level Cleveland Center
Sat 07:41:20 PM 42.2283 -82.7983 312° West 173 199 6,000 -50 Level Cleveland Center
Sat 07:42:21 PM 42.2586 -82.8500 308° West 175 201 5,900  Descending Cleveland Center
Sat 07:43:16 PM 42.2889 -82.8933 313° West 174 200 6,000 50 Climbing Cleveland Center
Sat 07:44:22 PM 42.3319 -82.9314 327° Northwest 175 201 6,000  Level Cleveland Center
Sat 07:45:05 PM 42.3650 -82.9494 338° Northwest 176 203 6,000  Level Cleveland Center
Sat 07:46:06 PM 42.4103 -82.9764 336° Northwest 176 203 6,000  Level Cleveland Center
Sat 07:47:13 PM 42.4553 -83.0203 324° Northwest 179 206 6,000  Level Cleveland Center
Sat 07:48:13 PM 42.4983 -83.0558 329° Northwest 176 203 6,000  Level Cleveland Center
Sat 07:49:08 PM 42.5350 -83.0911 325° Northwest 176 203 6,000  Level Cleveland Center
Sat 07:50:15 PM 42.5822 -83.1294 329° Northwest 176 203 6,000  Level Cleveland Center
Sat 07:51:10 PM 42.6211 -83.1567 333° Northwest 173 199 6,000  Level Cleveland Center
Sat 07:52:04 PM 42.6578 -83.1892 327° Northwest 176 203 6,000  Level Cleveland Center
Sat 07:53:17 PM 42.7047 -83.2333 325° Northwest 174 200 6,000  Level Cleveland Center
Sat 07:54:30 PM 42.7539 -83.2753 328° Northwest 174 200 6,000  Level Cleveland Center
Sat 07:55:37 PM 42.8050 -83.3142 331° Northwest 176 203 6,000  Level Cleveland Center
Sat 07:56:19 PM 42.8336 -83.3381 329° Northwest 177 204 6,000  Level Cleveland Center
Sat 07:57:20 PM 42.8744 -83.3739 327° Northwest 176 203 6,000  Level Cleveland Center
Sat 07:58:15 PM 42.9111 -83.4067 327° Northwest 176 203 6,000  Level Cleveland Center
Sat 07:59:16 PM 42.9519 -83.4453 325° Northwest 174 200 6,000  Level Cleveland Center
Sat 08:00:16 PM 42.9906 -83.4814 326° Northwest 172 198 6,000  Level Cleveland Center
Sat 08:01:11 PM 43.0294 -83.5144 328° Northwest 173 199 6,000  Level Cleveland Center
Sat 08:02:06 PM 43.0664 -83.5417 332° Northwest 173 199 6,000 -41 Level Cleveland Center
Sat 08:03:37 PM 43.1272 -83.5986 326° Northwest 170 196 5,900 -226 Descending Cleveland Center
Sat 08:04:19 PM 43.1558 -83.6228 328° Northwest 179 206 5,500 -595 Descending Cleveland Center
Sat 08:05:38 PM 43.2150 -83.6711 329° Northwest 182 209 4,700 -621 Descending Cleveland Center
Sat 08:06:15 PM 43.2394 -83.6925 327° Northwest 180 207 4,300 -678 Descending Cleveland Center
Sat 08:07:33 PM 43.2903 -83.7406 325° Northwest 168 193 3,400 -692 Descending Cleveland Center

Login

Don't have an account? Register now (free) for customized features, flight alerts, and more!